sensor_id;sensor_type;location;lat;lon;timestamp;temperature;humidity
35497;DHT22;21609;49.298;6.844;2023-01-20T00:01:07;14.60;52.90
35497;DHT22;21609;49.298;6.844;2023-01-20T00:03:40;14.70;52.90
35497;DHT22;21609;49.298;6.844;2023-01-20T00:06:07;14.70;52.90
35497;DHT22;21609;49.298;6.844;2023-01-20T00:08:33;14.60;52.90
35497;DHT22;21609;49.298;6.844;2023-01-20T00:11:06;14.70;52.90
35497;DHT22;21609;49.298;6.844;2023-01-20T00:13:32;14.70;52.90
35497;DHT22;21609;49.298;6.844;2023-01-20T00:16:00;14.70;53.50
35497;DHT22;21609;49.298;6.844;2023-01-20T00:18:25;14.60;52.90
35497;DHT22;21609;49.298;6.844;2023-01-20T00:20:51;14.70;52.90
35497;DHT22;21609;49.298;6.844;2023-01-20T00:23:16;14.70;52.90
35497;DHT22;21609;49.298;6.844;2023-01-20T00:25:42;14.60;52.90
35497;DHT22;21609;49.298;6.844;2023-01-20T00:28:07;14.70;52.90
35497;DHT22;21609;49.298;6.844;2023-01-20T00:30:33;14.70;53.00
35497;DHT22;21609;49.298;6.844;2023-01-20T00:32:58;14.60;52.90
35497;DHT22;21609;49.298;6.844;2023-01-20T00:35:24;14.70;52.90
35497;DHT22;21609;49.298;6.844;2023-01-20T00:37:49;14.70;52.90
35497;DHT22;21609;49.298;6.844;2023-01-20T00:40:15;14.70;53.00
35497;DHT22;21609;49.298;6.844;2023-01-20T00:42:41;14.70;52.90
35497;DHT22;21609;49.298;6.844;2023-01-20T00:45:07;14.70;53.00
35497;DHT22;21609;49.298;6.844;2023-01-20T00:47:32;14.70;52.90
35497;DHT22;21609;49.298;6.844;2023-01-20T00:49:58;14.70;53.00
35497;DHT22;21609;49.298;6.844;2023-01-20T00:52:23;14.60;52.90
35497;DHT22;21609;49.298;6.844;2023-01-20T00:54:49;14.70;52.90
35497;DHT22;21609;49.298;6.844;2023-01-20T00:57:14;14.70;52.90
35497;DHT22;21609;49.298;6.844;2023-01-20T00:59:40;14.70;52.90
35497;DHT22;21609;49.298;6.844;2023-01-20T01:02:05;14.70;53.00
35497;DHT22;21609;49.298;6.844;2023-01-20T01:04:31;14.60;52.90
35497;DHT22;21609;49.298;6.844;2023-01-20T01:06:56;14.70;52.90
35497;DHT22;21609;49.298;6.844;2023-01-20T01:09:22;14.60;52.90
35497;DHT22;21609;49.298;6.844;2023-01-20T01:11:48;14.70;53.00
35497;DHT22;21609;49.298;6.844;2023-01-20T01:14:13;14.70;53.00
35497;DHT22;21609;49.298;6.844;2023-01-20T01:16:40;14.70;52.90
35497;DHT22;21609;49.298;6.844;2023-01-20T01:19:06;14.70;52.90
35497;DHT22;21609;49.298;6.844;2023-01-20T01:21:31;14.70;52.90
35497;DHT22;21609;49.298;6.844;2023-01-20T01:24:12;14.70;52.90
35497;DHT22;21609;49.298;6.844;2023-01-20T01:26:37;14.60;52.90
35497;DHT22;21609;49.298;6.844;2023-01-20T01:29:03;14.60;52.90
35497;DHT22;21609;49.298;6.844;2023-01-20T01:31:28;14.60;52.90
35497;DHT22;21609;49.298;6.844;2023-01-20T01:33:54;14.60;52.90
35497;DHT22;21609;49.298;6.844;2023-01-20T01:36:19;14.60;52.90
35497;DHT22;21609;49.298;6.844;2023-01-20T01:38:45;14.60;52.90
35497;DHT22;21609;49.298;6.844;2023-01-20T01:41:12;14.70;53.00
35497;DHT22;21609;49.298;6.844;2023-01-20T01:43:38;14.60;52.90
35497;DHT22;21609;49.298;6.844;2023-01-20T01:46:04;14.60;52.90
35497;DHT22;21609;49.298;6.844;2023-01-20T01:48:32;14.70;53.00
35497;DHT22;21609;49.298;6.844;2023-01-20T01:51:22;14.60;52.90
35497;DHT22;21609;49.298;6.844;2023-01-20T01:53:53;14.60;52.90
35497;DHT22;21609;49.298;6.844;2023-01-20T01:56:23;14.60;53.00
35497;DHT22;21609;49.298;6.844;2023-01-20T01:58:52;14.70;53.00
35497;DHT22;21609;49.298;6.844;2023-01-20T02:01:19;14.70;53.00
35497;DHT22;21609;49.298;6.844;2023-01-20T02:04:04;14.60;52.90
35497;DHT22;21609;49.298;6.844;2023-01-20T02:06:34;14.60;52.90
35497;DHT22;21609;49.298;6.844;2023-01-20T02:09:02;14.60;52.90
35497;DHT22;21609;49.298;6.844;2023-01-20T02:11:29;14.60;52.90
35497;DHT22;21609;49.298;6.844;2023-01-20T02:13:56;14.60;52.90
35497;DHT22;21609;49.298;6.844;2023-01-20T02:36:18;14.60;52.90
35497;DHT22;21609;49.298;6.844;2023-01-20T02:38:55;14.60;52.90
35497;DHT22;21609;49.298;6.844;2023-01-20T02:44:44;14.60;52.90
35497;DHT22;21609;49.298;6.844;2023-01-20T02:47:28;14.60;52.90
35497;DHT22;21609;49.298;6.844;2023-01-20T02:50:30;14.60;52.90
35497;DHT22;21609;49.298;6.844;2023-01-20T02:52:57;14.60;52.90
35497;DHT22;21609;49.298;6.844;2023-01-20T02:55:33;14.60;52.90
35497;DHT22;21609;49.298;6.844;2023-01-20T02:58:10;14.60;52.90
35497;DHT22;21609;49.298;6.844;2023-01-20T03:00:43;14.60;52.90
35497;DHT22;21609;49.298;6.844;2023-01-20T03:03:15;14.60;52.90
35497;DHT22;21609;49.298;6.844;2023-01-20T03:05:48;14.60;52.90
35497;DHT22;21609;49.298;6.844;2023-01-20T03:08:16;14.60;52.90
35497;DHT22;21609;49.298;6.844;2023-01-20T03:10:44;14.60;52.90
35497;DHT22;21609;49.298;6.844;2023-01-20T03:16:43;14.60;52.90
35497;DHT22;21609;49.298;6.844;2023-01-20T03:18:50;14.60;52.90
35497;DHT22;21609;49.298;6.844;2023-01-20T03:21:16;14.60;52.90
35497;DHT22;21609;49.298;6.844;2023-01-20T03:23:47;14.60;52.90
35497;DHT22;21609;49.298;6.844;2023-01-20T03:26:15;14.60;52.90
35497;DHT22;21609;49.298;6.844;2023-01-20T03:28:42;14.60;52.90
35497;DHT22;21609;49.298;6.844;2023-01-20T03:31:29;14.60;52.90
35497;DHT22;21609;49.298;6.844;2023-01-20T03:34:00;14.60;52.90
35497;DHT22;21609;49.298;6.844;2023-01-20T03:36:29;14.60;52.90
35497;DHT22;21609;49.298;6.844;2023-01-20T03:38:56;14.60;52.90
35497;DHT22;21609;49.298;6.844;2023-01-20T03:41:36;14.60;52.90
35497;DHT22;21609;49.298;6.844;2023-01-20T03:49:48;14.60;52.90
35497;DHT22;21609;49.298;6.844;2023-01-20T03:52:32;14.60;52.90
35497;DHT22;21609;49.298;6.844;2023-01-20T03:57:50;14.60;52.90
35497;DHT22;21609;49.298;6.844;2023-01-20T04:00:20;14.60;52.90
35497;DHT22;21609;49.298;6.844;2023-01-20T04:02:47;14.60;52.90
35497;DHT22;21609;49.298;6.844;2023-01-20T04:05:15;14.60;52.90
35497;DHT22;21609;49.298;6.844;2023-01-20T04:07:44;14.60;52.80
35497;DHT22;21609;49.298;6.844;2023-01-20T04:10:12;14.60;52.90
35497;DHT22;21609;49.298;6.844;2023-01-20T04:12:39;14.60;52.80
35497;DHT22;21609;49.298;6.844;2023-01-20T04:15:06;14.60;52.90
35497;DHT22;21609;49.298;6.844;2023-01-20T04:17:32;14.60;52.90
35497;DHT22;21609;49.298;6.844;2023-01-20T04:20:01;14.60;52.90
35497;DHT22;21609;49.298;6.844;2023-01-20T04:22:38;14.60;52.90
35497;DHT22;21609;49.298;6.844;2023-01-20T04:27:45;14.60;52.80
35497;DHT22;21609;49.298;6.844;2023-01-20T04:30:12;14.60;52.80
35497;DHT22;21609;49.298;6.844;2023-01-20T04:32:38;14.60;52.90
35497;DHT22;21609;49.298;6.844;2023-01-20T04:35:04;14.60;52.90
35497;DHT22;21609;49.298;6.844;2023-01-20T04:37:29;14.60;52.80
35497;DHT22;21609;49.298;6.844;2023-01-20T04:39:55;14.60;52.80
35497;DHT22;21609;49.298;6.844;2023-01-20T04:42:20;14.60;52.80
35497;DHT22;21609;49.298;6.844;2023-01-20T04:44:46;14.60;52.80
35497;DHT22;21609;49.298;6.844;2023-01-20T04:47:11;14.60;52.90
35497;DHT22;21609;49.298;6.844;2023-01-20T04:49:37;14.60;52.90
35497;DHT22;21609;49.298;6.844;2023-01-20T04:52:03;14.60;52.80
35497;DHT22;21609;49.298;6.844;2023-01-20T04:54:28;14.60;53.40
35497;DHT22;21609;49.298;6.844;2023-01-20T04:56:54;14.60;52.80
35497;DHT22;21609;49.298;6.844;2023-01-20T04:59:19;14.60;52.80
35497;DHT22;21609;49.298;6.844;2023-01-20T05:01:45;14.60;52.80
35497;DHT22;21609;49.298;6.844;2023-01-20T05:04:10;14.60;52.90
35497;DHT22;21609;49.298;6.844;2023-01-20T05:06:36;14.60;52.80
35497;DHT22;21609;49.298;6.844;2023-01-20T05:09:01;14.60;52.80
35497;DHT22;21609;49.298;6.844;2023-01-20T05:11:27;14.60;52.80
35497;DHT22;21609;49.298;6.844;2023-01-20T05:13:53;14.60;52.90
35497;DHT22;21609;49.298;6.844;2023-01-20T05:16:18;14.60;52.80
35497;DHT22;21609;49.298;6.844;2023-01-20T05:18:48;14.60;52.80
35497;DHT22;21609;49.298;6.844;2023-01-20T05:21:14;14.60;52.80
35497;DHT22;21609;49.298;6.844;2023-01-20T05:23:40;14.60;52.80
35497;DHT22;21609;49.298;6.844;2023-01-20T05:26:05;14.60;52.80
35497;DHT22;21609;49.298;6.844;2023-01-20T05:28:31;14.60;52.80
35497;DHT22;21609;49.298;6.844;2023-01-20T05:30:56;14.60;52.80
35497;DHT22;21609;49.298;6.844;2023-01-20T05:33:22;14.60;52.90
35497;DHT22;21609;49.298;6.844;2023-01-20T05:35:47;14.60;52.90
35497;DHT22;21609;49.298;6.844;2023-01-20T05:38:13;14.60;52.80
35497;DHT22;21609;49.298;6.844;2023-01-20T05:40:38;14.60;52.80
35497;DHT22;21609;49.298;6.844;2023-01-20T05:43:04;14.60;52.80
35497;DHT22;21609;49.298;6.844;2023-01-20T05:45:30;14.60;52.90
35497;DHT22;21609;49.298;6.844;2023-01-20T05:47:57;14.60;52.80
35497;DHT22;21609;49.298;6.844;2023-01-20T05:50:25;14.60;52.80
35497;DHT22;21609;49.298;6.844;2023-01-20T05:52:50;14.60;52.80
35497;DHT22;21609;49.298;6.844;2023-01-20T05:55:16;14.60;53.40
35497;DHT22;21609;49.298;6.844;2023-01-20T05:57:42;14.60;53.40
35497;DHT22;21609;49.298;6.844;2023-01-20T06:00:08;14.60;52.80
35497;DHT22;21609;49.298;6.844;2023-01-20T06:02:34;14.60;52.80
35497;DHT22;21609;49.298;6.844;2023-01-20T06:05:00;14.60;52.80
35497;DHT22;21609;49.298;6.844;2023-01-20T06:07:29;14.60;52.80
35497;DHT22;21609;49.298;6.844;2023-01-20T06:09:55;14.60;52.80
35497;DHT22;21609;49.298;6.844;2023-01-20T06:12:21;14.60;52.80
35497;DHT22;21609;49.298;6.844;2023-01-20T06:14:47;14.60;52.80
35497;DHT22;21609;49.298;6.844;2023-01-20T06:17:12;14.60;52.80
35497;DHT22;21609;49.298;6.844;2023-01-20T06:19:38;14.60;52.80
35497;DHT22;21609;49.298;6.844;2023-01-20T06:22:03;14.60;52.80
35497;DHT22;21609;49.298;6.844;2023-01-20T06:24:29;14.60;52.90
35497;DHT22;21609;49.298;6.844;2023-01-20T06:26:55;14.60;52.90
35497;DHT22;21609;49.298;6.844;2023-01-20T06:29:21;14.60;52.90
35497;DHT22;21609;49.298;6.844;2023-01-20T06:31:46;14.60;52.90
35497;DHT22;21609;49.298;6.844;2023-01-20T06:34:12;14.60;52.90
35497;DHT22;21609;49.298;6.844;2023-01-20T06:36:38;14.60;53.50
35497;DHT22;21609;49.298;6.844;2023-01-20T06:39:04;14.60;52.90
35497;DHT22;21609;49.298;6.844;2023-01-20T06:41:29;14.60;52.90
35497;DHT22;21609;49.298;6.844;2023-01-20T06:43:55;14.60;52.90
35497;DHT22;21609;49.298;6.844;2023-01-20T06:46:21;14.60;52.90
35497;DHT22;21609;49.298;6.844;2023-01-20T06:48:47;14.60;52.90
35497;DHT22;21609;49.298;6.844;2023-01-20T06:51:17;14.60;52.90
35497;DHT22;21609;49.298;6.844;2023-01-20T06:53:43;14.50;52.90
35497;DHT22;21609;49.298;6.844;2023-01-20T06:56:11;14.60;52.90
35497;DHT22;21609;49.298;6.844;2023-01-20T06:58:37;14.50;52.90
35497;DHT22;21609;49.298;6.844;2023-01-20T07:01:11;14.60;52.90
35497;DHT22;21609;49.298;6.844;2023-01-20T07:03:37;14.60;52.90
35497;DHT22;21609;49.298;6.844;2023-01-20T07:06:34;14.60;53.00
35497;DHT22;21609;49.298;6.844;2023-01-20T07:09:03;14.60;53.00
35497;DHT22;21609;49.298;6.844;2023-01-20T07:11:29;14.50;53.00
35497;DHT22;21609;49.298;6.844;2023-01-20T07:13:56;14.60;53.00
35497;DHT22;21609;49.298;6.844;2023-01-20T07:16:21;14.50;53.00
35497;DHT22;21609;49.298;6.844;2023-01-20T07:18:49;14.50;53.00
35497;DHT22;21609;49.298;6.844;2023-01-20T07:21:15;14.50;52.90
35497;DHT22;21609;49.298;6.844;2023-01-20T07:23:41;14.50;53.00
35497;DHT22;21609;49.298;6.844;2023-01-20T07:26:08;14.50;52.90
35497;DHT22;21609;49.298;6.844;2023-01-20T07:28:35;14.50;52.90
35497;DHT22;21609;49.298;6.844;2023-01-20T07:31:20;14.50;52.90
35497;DHT22;21609;49.298;6.844;2023-01-20T07:33:46;14.50;52.90
35497;DHT22;21609;49.298;6.844;2023-01-20T07:36:12;14.50;52.90
35497;DHT22;21609;49.298;6.844;2023-01-20T07:38:38;14.50;52.90
35497;DHT22;21609;49.298;6.844;2023-01-20T07:41:07;14.50;52.90
35497;DHT22;21609;49.298;6.844;2023-01-20T07:43:35;14.50;52.90
35497;DHT22;21609;49.298;6.844;2023-01-20T07:46:02;14.50;52.90
35497;DHT22;21609;49.298;6.844;2023-01-20T07:48:30;14.50;52.90
35497;DHT22;21609;49.298;6.844;2023-01-20T07:50:57;14.50;52.90
35497;DHT22;21609;49.298;6.844;2023-01-20T07:53:33;14.50;52.90
35497;DHT22;21609;49.298;6.844;2023-01-20T07:56:04;14.50;52.90
35497;DHT22;21609;49.298;6.844;2023-01-20T07:58:30;14.50;52.90
35497;DHT22;21609;49.298;6.844;2023-01-20T08:00:56;14.50;52.90
35497;DHT22;21609;49.298;6.844;2023-01-20T08:03:22;14.50;52.80
35497;DHT22;21609;49.298;6.844;2023-01-20T08:05:48;14.50;52.90
35497;DHT22;21609;49.298;6.844;2023-01-20T08:08:13;14.50;52.90
35497;DHT22;21609;49.298;6.844;2023-01-20T08:10:39;14.50;52.90
35497;DHT22;21609;49.298;6.844;2023-01-20T08:13:04;14.50;52.90
35497;DHT22;21609;49.298;6.844;2023-01-20T08:15:30;14.50;52.90
35497;DHT22;21609;49.298;6.844;2023-01-20T08:17:56;14.50;52.90
35497;DHT22;21609;49.298;6.844;2023-01-20T08:20:23;14.60;52.90
35497;DHT22;21609;49.298;6.844;2023-01-20T08:22:49;14.60;53.40
35497;DHT22;21609;49.298;6.844;2023-01-20T08:25:15;14.60;52.90
35497;DHT22;21609;49.298;6.844;2023-01-20T08:27:40;14.60;52.90
35497;DHT22;21609;49.298;6.844;2023-01-20T08:30:07;14.60;52.90
35497;DHT22;21609;49.298;6.844;2023-01-20T08:32:33;14.50;52.90
35497;DHT22;21609;49.298;6.844;2023-01-20T08:34:58;14.50;52.90
35497;DHT22;21609;49.298;6.844;2023-01-20T08:37:24;14.60;53.00
35497;DHT22;21609;49.298;6.844;2023-01-20T08:39:49;14.50;53.00
35497;DHT22;21609;49.298;6.844;2023-01-20T08:42:15;14.50;53.00
35497;DHT22;21609;49.298;6.844;2023-01-20T08:44:40;14.50;53.00
35497;DHT22;21609;49.298;6.844;2023-01-20T08:47:06;14.50;53.00
35497;DHT22;21609;49.298;6.844;2023-01-20T08:49:32;14.50;53.50
35497;DHT22;21609;49.298;6.844;2023-01-20T08:51:57;14.50;53.00
35497;DHT22;21609;49.298;6.844;2023-01-20T08:54:23;14.50;53.00
35497;DHT22;21609;49.298;6.844;2023-01-20T08:56:50;14.50;52.90
35497;DHT22;21609;49.298;6.844;2023-01-20T08:59:16;14.60;53.00
35497;DHT22;21609;49.298;6.844;2023-01-20T09:01:42;14.80;53.00
35497;DHT22;21609;49.298;6.844;2023-01-20T09:04:08;15.30;51.90
35497;DHT22;21609;49.298;6.844;2023-01-20T09:09:07;15.80;50.70
35497;DHT22;21609;49.298;6.844;2023-01-20T09:11:33;15.80;50.50
35497;DHT22;21609;49.298;6.844;2023-01-20T09:13:58;16.00;50.30
35497;DHT22;21609;49.298;6.844;2023-01-20T09:16:24;16.10;50.20
35497;DHT22;21609;49.298;6.844;2023-01-20T09:18:49;16.20;49.90
35497;DHT22;21609;49.298;6.844;2023-01-20T09:21:15;16.30;49.80
35497;DHT22;21609;49.298;6.844;2023-01-20T09:23:41;16.40;49.80
35497;DHT22;21609;49.298;6.844;2023-01-20T09:26:07;16.50;49.50
35497;DHT22;21609;49.298;6.844;2023-01-20T09:28:34;16.60;49.30
35497;DHT22;21609;49.298;6.844;2023-01-20T09:31:02;16.60;49.30
35497;DHT22;21609;49.298;6.844;2023-01-20T09:33:32;16.60;49.30
35497;DHT22;21609;49.298;6.844;2023-01-20T09:36:00;16.70;49.20
35497;DHT22;21609;49.298;6.844;2023-01-20T09:38:26;16.70;49.30
35497;DHT22;21609;49.298;6.844;2023-01-20T09:41:29;16.70;49.20
35497;DHT22;21609;49.298;6.844;2023-01-20T09:53:10;16.40;48.40
35497;DHT22;21609;49.298;6.844;2023-01-20T09:55:49;16.40;49.80
35497;DHT22;21609;49.298;6.844;2023-01-20T10:00:47;16.70;49.30
35497;DHT22;21609;49.298;6.844;2023-01-20T10:03:21;16.80;49.20
35497;DHT22;21609;49.298;6.844;2023-01-20T10:05:51;16.90;49.20
35497;DHT22;21609;49.298;6.844;2023-01-20T10:08:24;16.90;49.10
35497;DHT22;21609;49.298;6.844;2023-01-20T10:10:58;16.90;49.10
35497;DHT22;21609;49.298;6.844;2023-01-20T10:13:35;17.00;49.10
35497;DHT22;21609;49.298;6.844;2023-01-20T10:16:07;17.00;49.20
35497;DHT22;21609;49.298;6.844;2023-01-20T10:18:42;17.00;49.20
35497;DHT22;21609;49.298;6.844;2023-01-20T10:21:12;17.00;49.30
35497;DHT22;21609;49.298;6.844;2023-01-20T10:23:54;17.00;49.30
35497;DHT22;21609;49.298;6.844;2023-01-20T10:29:00;17.10;49.30
35497;DHT22;21609;49.298;6.844;2023-01-20T10:31:29;17.10;49.20
35497;DHT22;21609;49.298;6.844;2023-01-20T10:34:19;17.20;49.20
35497;DHT22;21609;49.298;6.844;2023-01-20T10:39:50;17.20;49.10
35497;DHT22;21609;49.298;6.844;2023-01-20T10:42:18;17.30;49.20
35497;DHT22;21609;49.298;6.844;2023-01-20T10:44:46;17.30;49.30
35497;DHT22;21609;49.298;6.844;2023-01-20T10:47:24;17.30;49.20
35497;DHT22;21609;49.298;6.844;2023-01-20T10:56:01;17.40;49.00
35497;DHT22;21609;49.298;6.844;2023-01-20T10:58:31;17.40;49.00
35497;DHT22;21609;49.298;6.844;2023-01-20T11:00:59;17.40;49.00
35497;DHT22;21609;49.298;6.844;2023-01-20T11:03:35;17.40;49.00
35497;DHT22;21609;49.298;6.844;2023-01-20T11:06:02;17.40;49.00
35497;DHT22;21609;49.298;6.844;2023-01-20T11:08:28;17.50;48.90
35497;DHT22;21609;49.298;6.844;2023-01-20T11:10:59;17.50;49.00
35497;DHT22;21609;49.298;6.844;2023-01-20T11:13:29;17.50;48.90
35497;DHT22;21609;49.298;6.844;2023-01-20T11:15:59;17.50;48.90
35497;DHT22;21609;49.298;6.844;2023-01-20T11:18:29;17.50;48.90
35497;DHT22;21609;49.298;6.844;2023-01-20T11:21:06;17.50;48.90
35497;DHT22;21609;49.298;6.844;2023-01-20T11:23:46;17.50;48.90
35497;DHT22;21609;49.298;6.844;2023-01-20T11:26:19;17.40;48.90
35497;DHT22;21609;49.298;6.844;2023-01-20T11:28:51;17.50;48.90
35497;DHT22;21609;49.298;6.844;2023-01-20T11:31:18;17.50;49.10
35497;DHT22;21609;49.298;6.844;2023-01-20T11:34:01;17.50;48.80
35497;DHT22;21609;49.298;6.844;2023-01-20T11:36:27;17.50;48.70
35497;DHT22;21609;49.298;6.844;2023-01-20T11:38:55;17.50;48.90
35497;DHT22;21609;49.298;6.844;2023-01-20T11:41:27;17.50;48.90
35497;DHT22;21609;49.298;6.844;2023-01-20T11:43:55;17.50;49.00
35497;DHT22;21609;49.298;6.844;2023-01-20T11:46:33;17.50;48.90
35497;DHT22;21609;49.298;6.844;2023-01-20T11:49:17;17.60;49.00
35497;DHT22;21609;49.298;6.844;2023-01-20T11:51:56;17.60;48.70
35497;DHT22;21609;49.298;6.844;2023-01-20T11:54:27;17.70;48.70
35497;DHT22;21609;49.298;6.844;2023-01-20T11:56:53;17.70;48.80
35497;DHT22;21609;49.298;6.844;2023-01-20T12:04:51;17.50;49.10
35497;DHT22;21609;49.298;6.844;2023-01-20T12:07:31;17.50;49.20
35497;DHT22;21609;49.298;6.844;2023-01-20T12:10:02;17.70;48.90
35497;DHT22;21609;49.298;6.844;2023-01-20T12:12:44;17.80;48.90
35497;DHT22;21609;49.298;6.844;2023-01-20T12:15:24;17.90;48.90
35497;DHT22;21609;49.298;6.844;2023-01-20T12:17:55;17.90;48.60
35497;DHT22;21609;49.298;6.844;2023-01-20T12:20:36;17.70;49.20
35497;DHT22;21609;49.298;6.844;2023-01-20T12:26:00;17.50;49.30
35497;DHT22;21609;49.298;6.844;2023-01-20T12:28:57;17.40;49.80
35497;DHT22;21609;49.298;6.844;2023-01-20T12:31:24;17.30;49.60
35497;DHT22;21609;49.298;6.844;2023-01-20T12:33:57;17.50;49.60
35497;DHT22;21609;49.298;6.844;2023-01-20T12:42:11;17.80;48.80
35497;DHT22;21609;49.298;6.844;2023-01-20T12:44:55;17.90;48.60
35497;DHT22;21609;49.298;6.844;2023-01-20T12:58:35;18.00;48.50
35497;DHT22;21609;49.298;6.844;2023-01-20T13:01:17;18.00;48.50
35497;DHT22;21609;49.298;6.844;2023-01-20T13:17:29;18.10;48.40
35497;DHT22;21609;49.298;6.844;2023-01-20T13:20:00;18.10;48.30
35497;DHT22;21609;49.298;6.844;2023-01-20T13:22:27;18.10;48.90
35497;DHT22;21609;49.298;6.844;2023-01-20T13:24:55;18.10;48.40
35497;DHT22;21609;49.298;6.844;2023-01-20T13:27:36;18.20;48.40
35497;DHT22;21609;49.298;6.844;2023-01-20T13:30:04;18.20;48.30
35497;DHT22;21609;49.298;6.844;2023-01-20T13:32:41;18.30;48.20
35497;DHT22;21609;49.298;6.844;2023-01-20T13:37:53;18.20;48.20
35497;DHT22;21609;49.298;6.844;2023-01-20T13:42:57;18.30;48.10
35497;DHT22;21609;49.298;6.844;2023-01-20T13:45:23;18.30;48.10
35497;DHT22;21609;49.298;6.844;2023-01-20T13:47:55;18.30;48.30
35497;DHT22;21609;49.298;6.844;2023-01-20T13:50:31;18.30;48.20
35497;DHT22;21609;49.298;6.844;2023-01-20T13:58:16;18.30;48.00
35497;DHT22;21609;49.298;6.844;2023-01-20T14:00:43;18.30;48.30
35497;DHT22;21609;49.298;6.844;2023-01-20T14:06:33;18.30;48.20
35497;DHT22;21609;49.298;6.844;2023-01-20T14:08:40;18.30;48.20
35497;DHT22;21609;49.298;6.844;2023-01-20T14:11:17;18.30;48.20
35497;DHT22;21609;49.298;6.844;2023-01-20T14:14:02;18.30;48.30
35497;DHT22;21609;49.298;6.844;2023-01-20T14:19:03;18.30;48.30
35497;DHT22;21609;49.298;6.844;2023-01-20T14:21:38;18.30;48.30
35497;DHT22;21609;49.298;6.844;2023-01-20T14:24:05;18.20;48.30
35497;DHT22;21609;49.298;6.844;2023-01-20T14:26:30;18.10;48.90
35497;DHT22;21609;49.298;6.844;2023-01-20T14:28:58;18.00;49.40
35497;DHT22;21609;49.298;6.844;2023-01-20T14:31:34;17.90;49.80
35497;DHT22;21609;49.298;6.844;2023-01-20T14:34:30;17.80;50.10
35497;DHT22;21609;49.298;6.844;2023-01-20T14:36:58;17.80;50.30
35497;DHT22;21609;49.298;6.844;2023-01-20T14:39:28;17.80;50.40
35497;DHT22;21609;49.298;6.844;2023-01-20T14:44:22;17.90;50.10
35497;DHT22;21609;49.298;6.844;2023-01-20T14:46:51;17.80;49.90
35497;DHT22;21609;49.298;6.844;2023-01-20T14:49:18;17.90;50.30
35497;DHT22;21609;49.298;6.844;2023-01-20T14:51:45;17.90;50.50
35497;DHT22;21609;49.298;6.844;2023-01-20T14:54:37;17.90;50.50
35497;DHT22;21609;49.298;6.844;2023-01-20T14:59:57;18.00;50.20
35497;DHT22;21609;49.298;6.844;2023-01-20T15:02:28;18.00;50.20
35497;DHT22;21609;49.298;6.844;2023-01-20T15:04:55;18.10;50.10
35497;DHT22;21609;49.298;6.844;2023-01-20T15:07:21;18.10;49.80
35497;DHT22;21609;49.298;6.844;2023-01-20T15:10:03;18.10;49.70
35497;DHT22;21609;49.298;6.844;2023-01-20T15:12:33;18.20;49.60
35497;DHT22;21609;49.298;6.844;2023-01-20T15:20:31;18.20;49.30
35497;DHT22;21609;49.298;6.844;2023-01-20T15:22:58;18.20;49.20
35497;DHT22;21609;49.298;6.844;2023-01-20T15:25:24;18.20;49.20
35497;DHT22;21609;49.298;6.844;2023-01-20T15:27:54;18.20;49.20
35497;DHT22;21609;49.298;6.844;2023-01-20T15:30:21;18.20;49.20
35497;DHT22;21609;49.298;6.844;2023-01-20T15:32:50;18.20;49.20
35497;DHT22;21609;49.298;6.844;2023-01-20T15:35:18;18.20;49.20
35497;DHT22;21609;49.298;6.844;2023-01-20T15:37:52;18.20;49.10
35497;DHT22;21609;49.298;6.844;2023-01-20T15:40:23;18.10;49.70
35497;DHT22;21609;49.298;6.844;2023-01-20T15:42:50;18.10;49.40
35497;DHT22;21609;49.298;6.844;2023-01-20T15:45:16;18.00;49.40
35497;DHT22;21609;49.298;6.844;2023-01-20T15:47:43;18.00;49.30
35497;DHT22;21609;49.298;6.844;2023-01-20T15:50:13;18.00;49.40
35497;DHT22;21609;49.298;6.844;2023-01-20T15:52:39;18.00;49.50
35497;DHT22;21609;49.298;6.844;2023-01-20T15:55:05;18.00;49.50
35497;DHT22;21609;49.298;6.844;2023-01-20T15:57:30;18.00;49.60
35497;DHT22;21609;49.298;6.844;2023-01-20T15:59:56;18.00;49.50
35497;DHT22;21609;49.298;6.844;2023-01-20T16:02:22;18.10;49.40
35497;DHT22;21609;49.298;6.844;2023-01-20T16:04:48;18.10;49.50
35497;DHT22;21609;49.298;6.844;2023-01-20T16:07:16;18.00;49.40
35497;DHT22;21609;49.298;6.844;2023-01-20T16:09:42;18.00;49.30
35497;DHT22;21609;49.298;6.844;2023-01-20T16:12:13;18.00;49.30
35497;DHT22;21609;49.298;6.844;2023-01-20T16:14:39;18.00;49.40
35497;DHT22;21609;49.298;6.844;2023-01-20T16:17:16;18.00;49.30
35497;DHT22;21609;49.298;6.844;2023-01-20T16:19:42;18.00;49.40
35497;DHT22;21609;49.298;6.844;2023-01-20T16:22:08;18.00;49.40
35497;DHT22;21609;49.298;6.844;2023-01-20T16:24:35;17.90;49.40
35497;DHT22;21609;49.298;6.844;2023-01-20T16:27:03;17.90;49.40
35497;DHT22;21609;49.298;6.844;2023-01-20T16:29:30;17.90;49.50
35497;DHT22;21609;49.298;6.844;2023-01-20T16:31:55;17.90;49.50
35497;DHT22;21609;49.298;6.844;2023-01-20T16:34:21;17.90;49.50
35497;DHT22;21609;49.298;6.844;2023-01-20T16:36:46;17.80;48.80
35497;DHT22;21609;49.298;6.844;2023-01-20T16:39:12;17.80;49.20
35497;DHT22;21609;49.298;6.844;2023-01-20T16:41:37;17.90;49.40
35497;DHT22;21609;49.298;6.844;2023-01-20T16:44:03;17.90;49.30
35497;DHT22;21609;49.298;6.844;2023-01-20T16:46:30;18.00;49.40
35497;DHT22;21609;49.298;6.844;2023-01-20T16:48:57;18.00;49.20
35497;DHT22;21609;49.298;6.844;2023-01-20T16:51:28;18.00;49.10
35497;DHT22;21609;49.298;6.844;2023-01-20T16:53:55;18.00;49.10
35497;DHT22;21609;49.298;6.844;2023-01-20T16:56:24;18.00;49.30
35497;DHT22;21609;49.298;6.844;2023-01-20T16:58:53;18.00;49.00
35497;DHT22;21609;49.298;6.844;2023-01-20T17:01:20;18.00;49.10
35497;DHT22;21609;49.298;6.844;2023-01-20T17:03:50;18.00;49.20
35497;DHT22;21609;49.298;6.844;2023-01-20T17:06:18;18.00;49.10
35497;DHT22;21609;49.298;6.844;2023-01-20T17:08:45;17.90;49.30
35497;DHT22;21609;49.298;6.844;2023-01-20T17:13:50;17.80;49.70
35497;DHT22;21609;49.298;6.844;2023-01-20T17:16:17;17.70;49.80
35497;DHT22;21609;49.298;6.844;2023-01-20T17:18:43;17.70;49.80
35497;DHT22;21609;49.298;6.844;2023-01-20T17:21:12;17.70;50.00
35497;DHT22;21609;49.298;6.844;2023-01-20T17:23:39;17.70;50.00
35497;DHT22;21609;49.298;6.844;2023-01-20T17:26:06;17.60;50.10
35497;DHT22;21609;49.298;6.844;2023-01-20T17:28:32;17.60;50.10
35497;DHT22;21609;49.298;6.844;2023-01-20T17:31:05;17.60;50.10
35497;DHT22;21609;49.298;6.844;2023-01-20T17:33:31;17.60;50.20
35497;DHT22;21609;49.298;6.844;2023-01-20T17:35:58;17.60;50.20
35497;DHT22;21609;49.298;6.844;2023-01-20T17:38:24;17.60;50.20
35497;DHT22;21609;49.298;6.844;2023-01-20T17:40:49;17.50;50.10
35497;DHT22;21609;49.298;6.844;2023-01-20T17:43:15;17.60;50.20
35497;DHT22;21609;49.298;6.844;2023-01-20T17:45:41;17.50;50.20
35497;DHT22;21609;49.298;6.844;2023-01-20T17:48:07;17.60;50.20
35497;DHT22;21609;49.298;6.844;2023-01-20T17:50:32;17.50;50.10
35497;DHT22;21609;49.298;6.844;2023-01-20T17:52:58;17.50;50.00